x

8461490 - New London, Ct (nlnc3) Weather Station

7:30 - Sun 25th Jan 2015 All times are EST. -5 hours from GMT.

  • Wind
    6mph, 8mph gusts
  • Sea Temp 37°f
  • Ar Temp 33°f
  • Sea Pressure 1001.5mb
  • 8461490 - New London, Ct
  • 8461490 - New London, Ct

More Historic Weather Station data

Upgrade to MSW Pro to gain access to the past 30 days of data for over 8000 Wavebouys and Weather Stations around the globe.

Join Pro

Comparision Forecast

View Surf forecast
   
Dom 01/25 7:30 6 8 mph 1001.5mb 37f 33f
7:24 6 9 mph 1001.5mb 37f 32f
7:18 2 6 mph 1001.5mb 37f 31f
7:12 5 7 mph 1001.4mb 37f 31f
7:06 5 7 mph 1001.2mb 37f 31f
7:00 2 6 mph 1001.1mb 37f 31f
6:54 3 6 mph 1000.9mb 37f 31f
6:48 3 6 mph 1001mb 38f 31f
6:42 1 5 mph 1000.9mb 38f 31f
6:36 2 6 mph 1000.8mb 37f 31f
6:30 3 7 mph 1000.7mb 37f 31f
6:24 5 9 mph 1000.6mb 37f 31f
6:18 5 9 mph 1000.4mb 37f 31f
6:12 5 10 mph 1000.2mb 37f 31f
6:06 5 9 mph 1000.1mb 38f 31f
6:00 3 7 mph 1000mb 38f -
5:54 2 9 mph 1000mb 38f -
5:48 5 8 mph 999.8mb 38f 31f
5:42 5 9 mph 999.7mb 38f 31f
5:36 2 8 mph 999.6mb 38f 31f
5:30 5 9 mph 999.5mb 39f 31f
5:24 2 6 mph 999.4mb 39f 31f
5:18 3 7 mph 999.5mb 39f 31f
5:12 5 7 mph 999.5mb 39f 31f
5:06 5 8 mph 999.2mb 39f 31f
5:00 2 6 mph 999mb 39f 31f
4:54 5 7 mph 999mb 39f 31f
4:48 1 7 mph 998.9mb 39f 31f
4:42 5 9 mph 998.8mb 39f 31f
4:36 5 8 mph 998.7mb 39f 31f
4:30 3 7 mph 998.7mb 39f 31f
4:24 2 5 mph 998.8mb 39f 31f
4:18 2 3 mph 998.7mb 39f 31f
4:12  -  5 mph 998.7mb 40f 31f
4:06  -  5 mph 998.6mb 40f 31f
4:00  -  7 mph 998.6mb 40f 31f
3:54 5 7 mph 998.6mb 40f 31f
3:48 6 8 mph 998.6mb 40f 31f
3:42 3 6 mph 998.5mb 40f 31f
3:36 1 5 mph 998.5mb 40f 31f
3:30 2 6 mph 998.3mb 40f 31f
3:24 3 6 mph 998.3mb 40f 31f
3:18 2 3 mph 998.2mb 40f 31f
3:12 2 3 mph 998.2mb 40f 31f
3:06  -  6 mph 998.1mb 40f 31f
3:00 3 6 mph 997.9mb 40f 31f
2:54  -  7 mph 997.8mb 40f 31f
2:48 3 8 mph 997.6mb 40f 32f
2:42 3 8 mph 997.6mb 40f 32f
2:36 2 6 mph 997.6mb 40f 32f
2:30 3 8 mph 997.5mb 40f 32f
2:24 3 8 mph 997.5mb 40f 32f
2:18 3 9 mph 997.5mb 40f 32f
2:12 2 7 mph 997.3mb 40f 32f
2:06 2 7 mph 997.1mb 40f 32f
2:00 5 7 mph 996.9mb 40f 32f
1:54 3 7 mph 996.9mb 40f 32f
1:48 3 8 mph 996.7mb 40f -
1:42 6 11 mph 996.5mb 40f -
1:36 3 9 mph 996.2mb 40f -
1:30 7 10 mph 996.1mb 40f 33f
1:24 5 9 mph 996mb 40f 33f
1:18 7 9 mph 995.9mb 40f 33f
1:12 5 9 mph 995.8mb 40f 33f
1:06 8 13 mph 995.7mb 40f 33f
1:00 9 16 mph 995.5mb 40f 33f
12:54 7 13 mph 995.3mb 40f 33f
12:48 7 11 mph 995.3mb 40f 33f
12:42 6 8 mph 995.2mb 40f 33f
12:36 6 13 mph 995.1mb 40f 33f
12:30 6 11 mph 995mb 40f 33f
12:24 7 13 mph 994.9mb 40f 32f
12:18 5 10 mph 994.9mb 40f 32f
12:12 6 11 mph 994.8mb 40f 32f
12:06 3 7 mph 994.8mb 40f 32f
12:00 6 14 mph 994.7mb 40f 32f
Sáb 01/24 11:54 5 11 mph 994.6mb 40f 32f
11:48 5 9 mph 994.6mb 40f 32f
11:42 5 9 mph 994.4mb 40f 32f
11:36 5 10 mph 994.3mb 40f 33f
11:30 6 11 mph 994.1mb 40f 33f
11:24 7 13 mph 994.1mb 40f 33f
11:18 3 11 mph 993.9mb 40f 32f
11:12 3 11 mph 993.9mb 40f 33f
11:06 3 10 mph 993.7mb 40f 33f
11:00 7 10 mph 993.6mb 40f 33f
10:54 5 9 mph 993.5mb 40f 33f
10:48 5 8 mph 993.3mb 40f 33f
10:42 5 10 mph 993.2mb 40f 33f
10:36 3 11 mph 993.1mb 40f 33f
10:30 5 8 mph 993.1mb 40f 33f
10:24 5 9 mph 993.1mb 40f 33f
10:18 5 8 mph 993mb 40f 33f
10:12 5 8 mph 993mb 40f 33f
10:06 5 7 mph 992.8mb 40f 33f
10:00 5 14 mph 992.7mb 40f 34f
9:54 6 16 mph 992.7mb 40f 34f
9:48 3 9 mph 992.6mb 40f 34f
9:42 6 10 mph 992.5mb 40f 34f
9:36 7 13 mph 992.3mb 40f 34f
9:30 6 13 mph 992.2mb 40f 34f
9:24 6 13 mph 992mb 40f 34f
9:18 6 10 mph 992mb 40f 34f
9:12 3 10 mph 991.9mb 40f 34f
9:06 7 11 mph 991.9mb 40f 35f
9:00 3 8 mph 991.9mb 39f 34f
8:54 2 8 mph 991.9mb 39f 34f
8:48 3 9 mph 991.7mb 39f 34f
8:42 2 6 mph 991.4mb 39f 34f
8:36 1 6 mph 991.2mb 39f 34f
8:30 5 8 mph 991.1mb 38f 34f
8:24 3 7 mph 991.1mb 38f 34f
8:18 3 8 mph 991.1mb 38f 34f
8:12 3 7 mph 990.9mb 38f 34f
8:06 2 6 mph 990.9mb 38f 34f
8:00 5 7 mph 991mb 38f 34f
7:54 2 5 mph 990.9mb 38f 34f
7:48 2 5 mph 990.8mb 38f 34f
7:42 3 6 mph 990.9mb 38f 34f
7:36 2 6 mph 990.7mb 38f 34f
7:30 3 7 mph 990.7mb 38f 34f
7:24 5 7 mph 990.7mb 38f 34f
7:18 3 8 mph 990.7mb 38f 34f
7:12 5 8 mph 990.7mb 38f 34f
7:06 2 7 mph 990.6mb 38f 34f
7:00 3 8 mph 990.5mb 38f 34f
6:54 3 7 mph 990.4mb 38f 34f
6:48 3 8 mph 990.2mb 38f 35f
6:42 3 7 mph 990.1mb 38f 35f
6:36 3 8 mph 989.9mb 38f 35f
6:30 5 8 mph 989.9mb 38f 35f
6:24 2 10 mph 989.7mb 38f 35f
6:18 5 8 mph 989.4mb 38f 35f
6:12 6 10 mph 989.3mb 38f 35f
6:06 6 10 mph 989.1mb 38f 35f
6:00 5 9 mph 989mb 38f 35f
5:54 6 14 mph 988.9mb 38f 35f
5:48 7 13 mph 988.8mb 38f 35f
5:42 8 13 mph 988.5mb 38f 35f
5:36 7 11 mph 988.4mb 38f 35f
5:30 7 11 mph 988.5mb 38f 35f
5:24 8 16 mph 988.4mb 38f 35f
5:18 9 16 mph 988.3mb 38f 35f
5:12 11 15 mph 988.2mb 38f 35f
5:06 11 22 mph 987.9mb 38f 35f
5:00 10 18 mph 987.6mb 39f 35f
4:54 10 16 mph 987.5mb 39f 35f
4:48 10 18 mph 987.4mb 39f 35f
4:42 10 18 mph 987.1mb 39f 35f
4:36 10 17 mph 986.8mb 38f 35f
4:30 6 17 mph 986.6mb 39f 35f
4:24 13 21 mph 986.3mb 39f 35f
4:18 11 17 mph 986.2mb 39f 35f
4:12 9 18 mph 986.2mb 39f 35f
4:06 13 22 mph 986.1mb 39f 35f
4:00 16 22 mph 986.4mb 39f 35f
3:54 13 21 mph 986.1mb 39f 35f
3:48 10 17 mph 986.4mb 39f 35f
3:42 10 15 mph 986.5mb 39f 35f
3:36 11 18 mph 986.6mb 39f 35f
3:30 9 14 mph 987mb 39f 35f
3:24 7 14 mph 987.4mb 39f 35f
3:18 10 15 mph 987.6mb 39f 35f
3:12 9 18 mph 987.7mb 39f 35f
3:06 10 16 mph 987.8mb 39f 35f
3:00 11 17 mph 988mb 39f 35f
2:54 11 16 mph 988.2mb 39f 35f
2:48 9 16 mph 988.2mb 39f 35f
2:42 8 20 mph 988.5mb 39f 35f
2:36 14 20 mph 988.8mb 40f 35f
2:30 13 18 mph 989.1mb 40f 35f
2:24 6 13 mph 988.8mb 40f 35f
2:18 9 15 mph 989.3mb 40f 35f
2:12 5 16 mph 989.6mb 40f 35f
2:06 13 16 mph 990.8mb 40f 35f
2:00 11 15 mph 990.8mb 40f 35f
1:54 10 17 mph 990.5mb 40f 35f
1:48 13 16 mph 990.5mb 40f 35f
1:42 7 14 mph 990.9mb 40f 35f
1:36 6 9 mph 989.8mb 40f 35f
1:30 8 16 mph 989.7mb 40f 35f
1:24 11 16 mph 989.8mb 40f 35f
1:18 13 17 mph 990.5mb 40f 35f
1:12 11 17 mph 990.2mb 40f 35f
1:06 9 14 mph 990.9mb 40f 35f
1:00 11 18 mph 991.3mb 40f 35f
12:54 13 17 mph 992mb 40f 35f
12:48 13 17 mph 992.1mb 40f 35f
12:42 9 14 mph 991.8mb 40f 35f
12:36 11 16 mph 991.7mb 40f 35f
12:30 13 16 mph 992.1mb 40f 34f
12:24 6 15 mph 992mb 40f 34f
12:18 9 16 mph 993.1mb 40f 34f
12:12 11 15 mph 993.6mb 40f 34f
12:06 6 14 mph 992.9mb 40f 34f
12:00 6 14 mph 993.3mb 40f 34f
11:54 9 15 mph 993.7mb 40f 34f
11:48 6 15 mph 993.8mb 40f 34f
11:42 9 15 mph 994.4mb 40f 34f
11:36 10 16 mph 994.7mb 40f 34f
11:30 13 17 mph 995.1mb 40f 34f
11:24 11 16 mph 995.4mb 40f 34f
11:18 14 16 mph 995.6mb 40f 34f
11:12 13 16 mph 995.8mb 40f 34f
11:06 9 17 mph 996mb 40f 34f
11:00 9 16 mph 996.2mb 40f 34f
10:54 10 14 mph 996.5mb 40f 34f
10:48 10 14 mph 996.7mb 40f 34f
10:42 11 14 mph 996.9mb 40f 34f
10:36 10 15 mph 997.2mb 39f 34f
10:30 10 13 mph 997.6mb 39f 34f
10:24 10 13 mph 997.6mb 39f 33f
10:18 9 14 mph 998mb 39f 33f
10:12 9 13 mph 998.5mb 39f 33f
10:06 9 13 mph 999mb 40f 33f
10:00 3 10 mph 998.9mb 40f 33f
9:54 7 14 mph 999.6mb 40f 33f
9:48 10 14 mph 999.8mb 40f 33f
9:42 8 13 mph 1000mb 40f 33f
9:36 9 11 mph 1000mb 40f 33f
9:30 8 11 mph 1000mb 40f 33f
9:24 6 8 mph 1000.5mb 40f 33f
9:18 3 9 mph 1000.7mb 40f 33f
9:12 6 8 mph 1000.7mb 40f 33f
9:06 6 8 mph 1000.9mb 40f 33f
9:00 2 6 mph 1001mb 40f 33f
8:54 2 3 mph 1000.9mb 40f 33f
8:48 2 3 mph 1001.2mb 40f 33f
8:42 1 3 mph 1001.4mb 40f 33f
8:36  -  mph 1001.6mb 40f 33f
8:30  -  mph 1001.7mb 40f 33f
8:24  -  mph 1002mb 40f 33f
8:18  -  2 mph 1002mb 40f 33f
8:12 2 3 mph 1002.1mb 40f 33f
8:06 2 3 mph 1002.3mb 40f 33f
8:00 2 8 mph 1002.4mb 40f 33f
7:54 5 8 mph 1002.5mb 40f 33f
7:48 5 8 mph 1002.6mb 39f 33f
7:42  -  6 mph 1002.9mb 39f 33f
7:36 5 8 mph 1003.2mb 38f 33f
7:30 6 10 mph 1003.5mb 38f 33f
7:24 6 10 mph 1003.4mb 37f 33f
7:18 9 13 mph 1003.7mb 38f 33f
7:12 8 11 mph 1004mb 38f 33f
7:06  -  mph 1004.4mb 37f 33f
7:00  -  mph 1004.4mb 37f 33f
6:54  -  mph 1004.4mb 37f 33f
6:48  -  mph 1004.5mb 38f 33f
6:42  -  mph 1004.8mb 39f 32f
6:36  -  mph 1005.3mb 38f 32f
6:30  -  mph 1005.7mb 38f 32f
6:24  -  mph 1005.9mb 37f 32f
6:18  -  mph 1006mb 38f 32f
6:12  -  mph 1006.1mb 37f 32f
6:06  -  mph 1006.3mb 38f 32f
6:00  -  mph 1006.4mb 38f 32f
5:54  -  mph 1006.7mb 38f 32f
5:48  -  mph - 38f -
5:42  -  mph - 38f -
5:36  -  mph - 38f -
5:30  -  mph 1007.3mb 38f 32f
5:24  -  mph 1007.5mb 38f 32f
5:18  -  mph 1007.6mb 38f 32f
5:12  -  mph 1007.8mb 38f 32f
5:06  -  mph 1008.1mb 38f 32f
5:00  -  mph 1008.2mb 38f 32f
4:54  -  mph 1008.5mb 39f 32f
4:48  -  mph 1008.6mb 39f 32f
4:42  -  mph 1008.7mb 39f 32f
4:36  -  mph 1008.7mb 39f 32f
4:30  -  mph 1008.9mb 39f 32f
4:24  -  mph 1009mb 39f 32f
4:18  -  mph 1009.1mb 39f 32f
4:12  -  mph 1009mb 39f 32f
4:06  -  mph 1009.2mb 39f 32f
4:00  -  mph 1009.4mb 39f 32f
3:54  -  2 mph 1009.7mb 39f 32f
3:48 2 3 mph 1009.9mb 39f 33f
3:42 3
mph
1010.1mb 39f 33f
3:36 2 3 mph 1010mb 39f 33f
3:30 3 5 mph 1010.2mb 39f 33f
3:24 2 5 mph 1010.3mb 40f 33f
3:18 3 5 mph 1010.5mb 40f 34f
3:12 5 6 mph 1010.7mb 40f 34f
3:06 5 8 mph 1010.9mb 40f 34f
3:00 5 7 mph 1010.9mb 40f 34f
2:54 5 7 mph 1011mb 40f 34f
2:48 5 7 mph 1010.9mb 40f 34f
2:42 3 6 mph 1010.8mb 40f 34f
2:36 2 7 mph 1010.9mb 39f 34f
2:30 5 7 mph 1010.9mb 39f 34f
2:24 3 8 mph 1011.1mb 40f 35f
2:18 5 9 mph 1011.4mb 40f 35f
2:12 5 10 mph 1011.6mb 40f 35f
2:06 8 15 mph 1011.9mb 40f 35f
2:00 5 14 mph 1011.8mb 40f 36f
1:54 8 11 mph 1012mb 40f 36f
1:48 7 10 mph 1012.1mb 40f 36f
1:42 6 10 mph 1012.1mb 40f 36f
1:36 8 11 mph 1012.4mb 40f 36f
1:30 7 9 mph 1012.5mb 40f 36f
1:24 5 9 mph 1012.5mb 40f 36f
1:18 9 13 mph 1012.8mb 40f 36f
1:12 7 10 mph 1012.8mb 40f 36f
1:06 8 11 mph 1012.9mb 40f 36f
1:00 7 11 mph 1013.2mb 40f 36f
12:54 8 11 mph 1013.4mb 40f 36f
12:48 8 13 mph 1013.5mb 40f 36f
12:42 7 10 mph 1013.6mb 40f 36f
12:36 8 11 mph 1013.9mb 40f 36f
12:30 7 10 mph 1014mb 40f 36f
12:24 6 8 mph 1014mb 40f 36f
12:18 6 10 mph 1014.1mb 40f 36f
12:12 8 13 mph 1014.3mb 40f 36f
12:06 10 15 mph 1014.4mb 40f 36f
12:00 7 10 mph 1014.5mb 40f 36f
Sex 01/23 11:54 9 13 mph 1014.6mb 40f 36f
11:48 8 10 mph 1014.6mb 40f 36f
11:42 6 9 mph 1014.4mb 40f 35f
11:36 7 10 mph 1014.4mb 40f 35f
11:30 6 8 mph 1014.4mb 40f 35f
11:24 5 8 mph 1014.4mb 40f 35f
11:18 5 8 mph 1014.4mb 40f 35f
11:12 6 9 mph 1014.4mb 40f 35f
11:06 6 10 mph 1014.4mb 40f 35f
11:00 6 9 mph 1014.5mb 40f 35f
10:54 6 8 mph 1014.6mb 40f 35f
10:48 5 7 mph 1014.8mb 40f 35f
10:42 5 7 mph 1015.1mb 40f 35f
10:36 3 6 mph 1015.2mb 40f 34f
10:30 3 6 mph 1015.2mb 39f 34f
10:24 3 6 mph 1015.3mb 39f 34f
10:18  -  mph 1015.4mb 39f 34f
10:12  -  mph 1015.6mb 39f 34f
10:06  -  mph 1016mb 39f 34f
10:00 6 7 mph 1016.3mb - 34f
9:54 3 5 mph 1016.1mb - 33f
9:48 3 6 mph 1016.3mb 39f 33f
9:42 2 5 mph 1016.4mb 39f 33f
9:36 2 5 mph 1016.4mb 39f 33f
9:30 3 6 mph 1016.5mb 39f 33f
9:24 5 8 mph 1016.6mb 39f 33f
9:18 3 8 mph 1016.8mb 39f 33f
9:12 3 7 mph 1016.9mb 39f 33f
9:06 5 8 mph 1016.9mb 39f 33f
9:00 6 9 mph 1017mb 40f 33f
8:54 6 9 mph 1017mb 40f 33f
8:48 3 7 mph 1017mb 40f -
8:42 5 8 mph 1017.2mb 40f -
8:36 3 7 mph 1017.2mb 38f -
8:30 2 8 mph 1017.2mb 38f 32f
8:24 3 5 mph 1017.6mb 38f 32f
8:18 3 6 mph 1017.7mb 38f 32f
8:12 3 7 mph 1018mb 39f 32f
8:06 2 6 mph 1017.9mb 39f 32f
8:00 3 6 mph 1017.8mb 39f 32f
7:54 3 5 mph 1017.9mb 39f 32f
7:48 3 9 mph 1017.9mb 40f 32f
7:42 6 7 mph 1018mb 40f 32f
7:36 3 10 mph 1018.1mb 40f 33f
7:30 6 10 mph 1018.3mb 40f 33f
7:24 7 10 mph 1018.3mb 40f 33f
7:18 8 11 mph 1018.3mb 39f 33f
7:12 6 7 mph 1018.4mb 38f 33f
7:06 5 8 mph 1018.5mb 38f 33f
7:00 5 8 mph 1018.6mb 38f 33f
6:54 7 11 mph 1018.7mb 38f 33f
6:48 8 13 mph 1018.7mb 38f 33f
6:42 7 10 mph 1018.5mb 37f 33f
6:36 6 8 mph 1018.8mb 37f 33f
6:30 5 9 mph 1018.9mb 37f 33f
6:24 8 10 mph 1019mb 38f 33f
6:18 7 11 mph 1019mb 38f 33f
6:12 7 13 mph 1019.2mb 38f 33f
6:06 8 10 mph 1019mb 38f 33f
6:00 7 9 mph 1018.7mb 38f 33f
5:54 6 7 mph 1018.4mb 38f 33f
5:48 5 8 mph 1018.3mb 38f 33f
5:42 6 8 mph 1018.3mb 38f 33f
5:36 5 7 mph 1018.4mb 38f 33f
5:30 6 10 mph 1018.4mb 38f 33f
5:24 6 10 mph 1018.7mb 38f 33f
5:18 6 9 mph 1018.9mb 37f 33f
5:12 7 9 mph 1018.8mb 37f 33f
5:06 8 10 mph 1018.8mb 38f 33f
5:00 6 9 mph 1018.6mb 38f 33f
4:54 5 11 mph 1018.7mb 38f 33f
4:48 7 9 mph 1019mb 38f 33f
4:42 7 13 mph 1019.1mb 37f 33f
4:36 7 10 mph 1019.2mb 38f 33f
4:30 8 11 mph 1019.2mb 38f 33f
4:24 6 11 mph 1019mb 38f 34f
4:18 7 9 mph 1019mb 38f 34f
4:12 7 10 mph 1019.2mb 38f 34f
4:06 8 14 mph 1019.4mb 39f 34f
4:00 9 14 mph 1019.4mb 39f 34f
3:54 8 13 mph 1019.6mb 39f 34f
3:48 7 15 mph 1019.7mb 39f 34f
3:42 10 14 mph 1019.7mb 39f 34f
3:36 7 11 mph 1019.7mb 39f 34f
3:30 10 11 mph 1019.7mb 39f 34f
3:24 8 14 mph 1019.9mb 39f 34f
3:18 10 15 mph 1019.9mb 39f 35f
3:12 9 15 mph 1020.1mb 39f 35f
3:06 11 15 mph 1020.1mb 39f 35f
3:00 9 14 mph 1020.2mb 39f 35f
2:54 10 16 mph 1020.2mb 39f 35f
2:48 10 15 mph 1020.3mb 39f 35f
2:42 9 14 mph 1020.4mb 40f 35f
2:36 11 15 mph 1020.5mb 40f 35f
2:30 10 18 mph 1020.5mb 40f 35f
2:24 13 15 mph 1020.5mb 40f 35f
2:18 11 17 mph 1020.4mb 40f 35f
2:12 11 16 mph 1020.5mb 40f 36f
2:06 8 15 mph 1020.5mb 40f 36f
2:00 7 14 mph 1020.7mb 40f 36f
1:54 8 14 mph 1020.7mb 40f 36f
1:48 9 14 mph 1020.7mb 40f 35f
1:42 11 16 mph 1020.8mb 40f 35f
1:36 7 11 mph 1020.8mb 40f 36f
1:30 10 16 mph 1020.8mb 40f 35f
1:24 6 11 mph 1020.9mb 40f 36f
1:18 8 13 mph 1021mb 40f 35f
1:12 7 13 mph 1021mb 40f 35f
1:06 10 15 mph 1021.2mb 40f 35f
1:00 8 11 mph 1021.3mb 40f 35f
12:54 6 11 mph 1021.5mb 40f 36f
12:48 6 10 mph 1021.7mb 40f 36f
12:42 9 14 mph 1021.9mb 40f 35f
12:36 9 13 mph 1022mb 40f 35f
12:30 8 13 mph 1022.2mb 40f 35f
12:24 9 15 mph 1022.3mb 40f 35f
12:18 9 14 mph 1022.3mb 40f 35f
12:12 7 11 mph 1022.5mb 40f 35f
12:06 7 9 mph 1022.8mb 40f 35f
12:00 6 8 mph 1022.9mb 40f 36f
11:54 6 7 mph 1022.9mb 40f 36f
11:48 3 7 mph 1023mb 40f 36f
11:42 6 8 mph 1023.1mb 40f 35f
11:36 7 9 mph 1023.4mb 40f 35f
11:30 6 8 mph 1023.5mb 40f 35f
11:24 5 6 mph 1023.8mb 40f 35f
11:18 5 8 mph 1023.9mb 40f 35f
11:12 2 8 mph 1024.1mb 40f 34f
11:06 6 9 mph 1024.2mb 40f 34f
11:00 2 7 mph - - 34f
10:54 7 9 mph - - 33f
10:48 1 6 mph 1024.4mb 40f 33f
10:42 6 9 mph 1024.6mb 40f 33f
10:36 2 7 mph 1024.7mb 40f 33f
10:30 6 8 mph 1024.7mb 40f 33f
10:24 3 7 mph 1024.8mb 40f 32f
10:18 5 6 mph 1024.9mb 40f 32f
10:12 5 7 mph 1025mb 40f 31f
10:06 2 7 mph 1025.1mb 40f 32f
10:00 5 6 mph 1025.2mb 40f 31f
9:54 2 7 mph 1025.2mb 40f 31f
9:48  -  mph - - 30f
9:42  -  mph - - 31f
9:36  -  mph - - 30f
9:30 2 5 mph 1025.6mb 40f 29f
9:24 2 6 mph 1025.5mb 40f 29f
9:18  -  2 mph 1025.5mb 40f 29f
9:12  -  2 mph 1025.6mb 40f 29f
9:06 1 5 mph 1025.7mb 40f 28f
9:00 2 5 mph 1025.7mb 40f 28f
8:54 2 5 mph 1025.8mb 40f 28f
8:48  -  5 mph 1025.7mb 40f 28f
8:42 2 5 mph 1025.8mb 40f 27f
8:36 2 5 mph 1025.8mb 40f 27f
8:30 5 6 mph 1025.9mb 40f 27f
8:24 3 6 mph 1025.9mb 40f 27f
8:18 3 6 mph 1026.1mb 40f 26f
8:12 3 7 mph 1026.2mb 40f 26f
8:06 3 6 mph 1026.3mb 40f 26f
8:00 3 5 mph 1026.3mb 40f 26f
7:54 2 5 mph 1026.3mb 40f 26f
7:48 3
mph
1026.3mb 40f 25f
7:42 2 3 mph 1026.4mb 40f 25f
7:36  -  2 mph 1026.2mb 40f 24f
7:30 3 5 mph 1026.2mb 40f 24f
7:24 2 3 mph 1026mb 40f 24f
7:18  -  3 mph 1025.8mb 40f 24f
7:12 2 3 mph 1025.9mb 40f 24f
7:06 2 5 mph 1025.8mb 40f 24f
7:00 3 5 mph 1025.7mb 40f 24f
6:54 2 5 mph 1025.6mb 40f 24f
6:48 2 5 mph 1025.6mb 39f 24f
6:42 3 5 mph 1025.7mb 38f 25f
6:36 3 5 mph 1025.6mb 38f 25f
6:30 2 5 mph 1025.4mb 37f 25f
6:24 3 6 mph 1025.4mb 37f 25f
6:18 3 8 mph 1025.2mb 37f 25f
6:12 5 8 mph 1025.3mb 37f 25f
6:06 5 7 mph 1025.2mb 37f 26f
6:00 6 8 mph 1025.2mb 37f 26f
5:54 7 9 mph 1025.2mb 37f 26f
5:48 5 7 mph 1025.3mb 37f 26f
5:42 5 7 mph 1025.3mb 37f 26f
5:36 2 5 mph 1025.4mb 37f 25f
5:30 2 6 mph 1025.4mb 37f 26f
5:24 3 6 mph 1025.3mb 37f 26f
5:18 2 3 mph 1025.1mb - 25f
5:12 3 7 mph 1025.1mb - 25f
5:06 2 6 mph 1025mb - 25f
5:00 2 6 mph 1024.9mb 37f 25f
4:54 3 8 mph 1024.7mb 37f 26f
4:48 3 8 mph 1024.6mb 37f 26f
4:42 5 7 mph 1024.6mb 37f 26f
4:36 5 8 mph 1024.6mb 37f 26f
4:30 6 8 mph 1024.5mb 37f 26f
4:24 6 9 mph 1024.4mb 37f 26f
4:18 6 11 mph 1024.3mb 37f 26f
4:12 7 9 mph 1024.3mb 37f 26f
4:06 7 13 mph 1024.2mb 38f 27f
4:00 8 11 mph 1024.1mb 37f 27f
3:54 8 11 mph 1024.2mb 37f 26f
3:48 7 11 mph 1024.3mb 37f 26f
3:42 7 10 mph 1024.4mb 37f 26f
3:36 6 10 mph 1024.5mb 38f 26f
3:30 6 9 mph 1024.5mb 38f 26f
3:24 6 8 mph 1024.5mb 38f 26f
3:18 5 7 mph 1024.5mb 39f 26f
3:12 5 8 mph 1024.6mb 38f 26f
3:06 5 9 mph 1024.6mb 38f 26f
3:00 6 7 mph 1024.6mb 39f 26f
2:54 5 7 mph 1024.7mb 39f 26f
2:48 3 8 mph 1024.8mb 39f 26f
2:42 5 8 mph 1024.9mb 39f 26f
2:36 5 8 mph 1024.9mb 39f 26f
2:30 7 10 mph 1024.9mb 39f 26f
2:24 7 9 mph 1025mb 39f 26f
2:18 3 6 mph 1025mb 39f 26f
2:12 2 6 mph 1024.9mb 39f 26f
2:06 2 6 mph 1025mb 39f 26f
2:00 1 5 mph 1025mb 39f 26f
1:54  -  5 mph 1024.9mb 39f 27f
1:48 3 6 mph 1024.9mb 39f 27f
1:42 2 6 mph 1024.9mb 39f 27f
1:36 5 7 mph 1024.8mb 39f 27f
1:30 2 5 mph 1024.9mb 39f 27f
1:24 2 5 mph 1024.8mb 40f 27f
1:18 2 6 mph 1024.6mb 40f 27f
1:12 3 6 mph 1024.5mb 40f 27f
1:06 2 6 mph 1024.5mb 40f 27f
1:00  -  5 mph 1024.6mb 40f 27f
12:54 3 5 mph 1024.6mb 40f 27f
12:48 3 5 mph 1024.5mb 40f 27f
12:42 2 3 mph 1024.4mb 40f 27f
12:36 2 6 mph 1024.4mb 40f 28f
12:30 2 5 mph 1024.4mb 40f 28f
12:24 1 3 mph 1024.4mb 40f 28f
12:18 2 5 mph 1024.5mb 40f 28f
12:12 3 6 mph 1024.4mb 40f 28f
12:06  -  3 mph 1024.4mb 40f 28f
12:00  -  5 mph 1024.5mb 40f 28f
Qui 01/22 11:54 2 3 mph 1024.4mb 40f 28f
11:48 1 2 mph 1024.3mb 40f 28f
11:42 2 3 mph 1024.3mb 40f 28f
11:36 2 5 mph 1024.4mb 40f 29f
11:30 2 5 mph 1024.4mb 40f 29f
11:24  -  3 mph 1024.3mb 40f 29f
11:18 2 5 mph 1024.3mb 40f 29f
11:12  -  5 mph 1024.3mb 40f 29f
11:06 2 6 mph 1024.2mb 40f 29f
11:00 2 6 mph 1024.2mb 40f 29f
10:54 1 5 mph 1024.1mb 40f 29f
10:48 2 3 mph 1024mb 40f 29f
10:42 2 5 mph 1024.1mb 40f 29f
10:36 3 5 mph 1023.9mb 40f 29f
10:30 3 5 mph 1023.9mb - 29f
10:24 2 5 mph 1023.9mb - 29f
10:18 3 6 mph 1023.9mb 40f 30f
10:12 2 5 mph 1023.8mb 40f 29f
10:06 2 5 mph 1023.8mb 40f 30f
10:00  -  5 mph 1023.8mb 40f 30f
9:54 3 6 mph 1023.9mb 40f 30f
9:48 2 6 mph 1023.8mb 40f 30f
9:42 5 6 mph 1024mb 40f 30f
9:36 3 6 mph 1024mb 40f 30f
9:30 3 6 mph 1024.1mb 39f 30f
9:24 2 3 mph 1024.2mb 39f 30f
9:18  -  3 mph 1024.1mb 39f 30f
9:12 1 5 mph 1024mb 39f 30f
9:06 3 5 mph 1024mb 39f 30f
9:00 2 5 mph 1024mb 39f 30f
8:54 2 3 mph 1024mb 39f 30f
8:48 2 5 mph 1024.1mb 39f 31f
8:42 2 3 mph 1024mb 39f 30f
8:36  -  mph 1024mb 40f 31f
8:30  -  2 mph 1024mb 40f 31f
8:24 2 5 mph 1024mb 39f 31f
8:18 1 2 mph 1024mb 40f 31f
8:12 1 2 mph 1024.1mb 40f 31f
8:06 2 3 mph 1024.1mb 40f 31f
8:00 2 5 mph 1024.2mb 40f 31f
7:54 3 6 mph 1024.3mb 40f 32f
7:48 3 5 mph 1024.3mb 40f 32f
7:42 2 5 mph 1024.3mb 40f 31f
7:36 2 6 mph 1024.2mb 40f 32f
7:30 3 6 mph 1024.2mb 40f 32f
7:24 3 5 mph 1024.2mb 40f 31f
7:18 2 5 mph 1024.1mb 40f 31f
7:12 2 5 mph 1024mb 40f 31f
7:06 1 3 mph 1023.9mb 40f 31f
7:00  -  1 mph 1023.9mb 40f 31f
6:54  -  mph 1023.9mb 40f 31f
6:48  -  mph 1023.8mb 40f 31f
6:42  -  mph 1023.8mb 40f 31f
6:36  -  mph 1023.7mb 40f 31f
6:30  -  mph 1023.7mb 39f 31f
6:24  -  mph 1023.6mb 37f 31f
6:18  -  mph 1023.5mb 37f 32f
6:12  -  mph 1023.4mb 37f 32f
6:06 1 2 mph 1023.3mb 37f 32f
6:00 1 2 mph 1023.3mb 37f 32f
5:54 2 5 mph 1023.2mb 37f 32f
5:48  -  mph 1023.1mb 37f 32f
5:42  -  mph 1023mb 37f 33f
5:36  -  mph 1022.9mb 38f 33f
5:30  -  mph - 38f 33f
5:24  -  mph - 38f 33f
5:18 1 3 mph 1022.7mb 38f 34f
5:12 2 5 mph 1022.6mb 38f 34f
5:06 2 5 mph 1022.5mb 38f 34f
5:00 3 5 mph 1022.4mb 38f 35f
4:54 2 5 mph 1022.3mb 38f 35f
4:48 3 5 mph 1022.2mb 38f 35f
4:42 3 6 mph 1022.1mb 38f 35f
4:36 5
mph
1022.1mb 38f 35f
4:30  -  mph 1022.1mb 38f 36f
4:24  -  mph 1022.1mb 38f 36f
4:18 3 5 mph 1022mb 38f 36f
4:12 3 5 mph 1021.9mb 38f 36f
4:06 3
mph
1021.9mb 38f 36f
4:00 2 5 mph 1021.8mb 38f 36f
3:54 3
mph
1021.7mb 38f 36f
3:48 2 3 mph 1021.7mb 38f 36f
3:42  -  mph 1021.6mb 38f 36f
3:36  -  mph 1021.5mb 38f 36f
3:30  -  mph 1021.5mb 38f 36f
3:24  -  mph 1021.4mb 38f 36f
3:18  -  mph 1021.4mb 38f 36f
3:12  -  mph 1021.4mb 39f 36f
3:06  -  1 mph 1021.4mb 39f 36f
3:00 1 2 mph 1021.4mb 39f 36f
2:54 1 3 mph 1021.4mb 39f 35f
2:48 2 3 mph 1021.4mb 39f 35f
2:42 2 3 mph 1021.4mb 39f 35f
2:36 2 3 mph 1021.4mb 39f 35f
2:30 2 3 mph 1021.4mb 39f 35f
2:24  -  3 mph 1021.4mb 39f 35f
2:18 2 3 mph 1021.4mb 39f 35f
2:12 2 3 mph 1021.5mb 39f 35f
2:06  -  2 mph 1021.5mb 39f 35f
2:00 1 3 mph 1021.5mb 39f 35f
1:54 2 3 mph 1021.4mb 39f 35f
1:48 2 3 mph 1021.5mb 39f 35f
1:42 2 3 mph 1021.5mb 40f 35f
1:36 2 3 mph 1021.5mb 40f 35f
1:30 2 3 mph 1021.5mb 40f 34f
1:24 2 3 mph 1021.5mb 40f 34f
1:18 2 3 mph 1021.6mb 40f 34f
1:12 3
mph
1021.6mb 40f 34f
1:06 2 3 mph 1021.6mb 40f 34f
1:00 2 3 mph 1021.6mb 40f 34f
12:54 2 3 mph 1021.6mb 40f 33f
12:48 1 6 mph 1021.6mb 40f 34f
12:42  -  3 mph 1021.7mb 40f 34f
12:36 2 3 mph 1021.8mb 40f 34f
12:30 1 2 mph 1021.8mb 40f 34f
12:24  -  3 mph 1021.9mb 40f 33f
12:18 1 3 mph 1021.9mb 40f 33f
12:12 2 5 mph 1022mb 40f 33f
12:06 2 6 mph 1022mb 40f 33f
12:00  -  mph 1022mb 40f 33f
11:54  -  mph 1021.9mb 40f 33f
11:48  -  mph 1021.9mb 40f 32f
11:42  -  mph 1021.9mb 40f 33f
11:36  -  2 mph 1021.9mb 40f 33f
11:30 2
mph
1021.9mb 40f 32f
11:24 2 3 mph 1021.9mb 40f 32f
11:18 1 5 mph 1021.9mb 40f 32f
11:12 2 5 mph 1022mb 40f 32f
11:06 5 6 mph 1022mb 40f 32f
11:00 5 6 mph 1022mb 40f 32f
10:54 3 6 mph 1022mb 40f 32f
10:48 2 5 mph 1022mb 40f 32f
10:42 3 7 mph 1022mb 40f 32f
10:36 6 8 mph 1022mb 40f 32f
10:30 6 7 mph 1022mb 40f 32f
10:24 5 7 mph 1022.1mb 40f 32f
10:18 5 7 mph 1022.1mb 40f 32f
10:12 3 7 mph 1022mb 40f 32f
10:06 5 7 mph 1022.1mb 40f 32f
10:00 3 7 mph 1022.1mb 40f 31f
9:54 3 8 mph 1022mb 40f 31f
9:48 5 7 mph 1022mb 40f 31f
9:42 3 8 mph 1022mb 40f 31f
9:36 6 9 mph 1021.9mb 40f 31f
9:30 3 9 mph 1021.9mb 40f 31f
9:24 6 7 mph 1021.9mb 40f 31f
9:18 3 9 mph 1021.8mb 40f 31f
9:12 6 7 mph 1021.8mb 40f 31f
9:06 5 7 mph 1021.8mb 40f 31f
9:00 5 8 mph 1021.7mb 40f 31f
8:54 5 9 mph 1021.6mb 40f 31f
8:48 6 8 mph 1021.6mb 40f 31f
8:42 5 8 mph 1021.6mb 40f 31f
8:36 5 8 mph 1021.5mb 40f 31f
8:30 3 6 mph 1021.5mb 40f 31f
8:24 5 6 mph 1021.5mb 40f 31f
8:18 3 6 mph 1021.4mb 40f 31f
8:12 3 5 mph 1021.4mb 40f 31f
8:06 5 6 mph 1021.3mb 40f 31f
8:00 3 6 mph 1021.3mb 40f 31f
7:54 5 8 mph 1021.2mb 40f 31f
7:48 5 8 mph 1021.1mb 40f 31f
7:42 3 7 mph 1021mb 40f 31f
7:36 5 9 mph 1021mb 40f 31f
7:30 6 8 mph 1021mb 40f 31f
7:24 5 8 mph 1021mb 40f 31f
7:18 5 6 mph 1020.9mb 40f 31f
7:12 1 7 mph 1020.9mb 40f 31f
7:06 3 5 mph 1020.9mb 40f 31f
7:00 5 7 mph 1020.9mb 40f 31f
6:54 3 6 mph 1020.8mb 40f 31f
6:48 1 5 mph 1020.8mb 40f 31f
6:42 2 6 mph 1020.7mb 40f 31f
6:36 6 7 mph 1020.6mb 40f 31f
6:30 6 8 mph 1020.6mb 40f 31f
6:24 5 7 mph 1020.6mb 40f 31f
6:18 2 8 mph 1020.5mb 40f 31f
6:12 3 7 mph 1020.4mb 40f 31f
6:06 3 6 mph 1020.3mb 40f 31f
6:00 5 7 mph 1020.3mb 39f 31f
5:54 6 8 mph 1020.3mb 38f 31f
5:48 6 8 mph 1020.2mb 38f 31f
5:42 3 6 mph 1020.2mb 38f 31f
5:36 6 8 mph 1020.1mb 38f 31f
5:30 2 6 mph 1020.1mb 37f 31f
5:24 3 6 mph 1020.1mb 37f 31f
5:18 3 6 mph 1020mb 37f 31f
5:12 3 7 mph 1020mb 37f 31f
5:06 3 6 mph 1019.9mb 37f 31f
5:00 5 7 mph 1019.9mb 37f 31f
4:54 5 6 mph 1019.9mb 37f 31f
4:48 5 6 mph 1019.9mb 37f 31f
4:42 5 6 mph 1019.9mb 37f 31f
4:36 3 7 mph 1019.8mb 37f 31f
4:30 2 6 mph 1019.7mb 37f 31f
4:24 2 7 mph 1019.7mb 37f 31f
4:18 3 6 mph 1019.8mb 38f 31f
4:12 3 8 mph 1019.8mb 38f 31f
4:06 5 7 mph 1019.8mb 38f 31f
4:00 5 7 mph 1019.8mb 38f 31f
3:54 6 7 mph 1019.8mb 38f 30f
3:48 5 6 mph 1019.8mb 38f 30f
3:42 1 5 mph 1019.7mb 38f 30f
3:36 2 6 mph 1019.7mb 38f 30f
3:30 2 8 mph 1019.8mb 38f 30f
3:24 3 8 mph 1019.9mb 38f 30f
3:18 7 9 mph 1019.9mb 38f 30f
3:12 7 10 mph 1020mb 38f 30f
3:06 7 11 mph 1020mb 38f 30f
3:00 8 10 mph 1020mb 38f 30f
2:54 6 9 mph 1020mb 39f 30f
2:48 6 9 mph 1020mb 39f 30f
2:42 6 9 mph 1020.1mb 39f 30f
2:36 6 9 mph 1020.1mb 39f 30f
2:30 5 7 mph 1020.1mb 39f 30f
2:24 2 7 mph 1020mb 39f 30f
2:18 3 7 mph 1020.1mb 39f 30f
2:12 6 8 mph 1020.1mb 39f 30f
2:06 3 8 mph 1020.1mb 39f 30f
2:00 5 6 mph 1020.2mb 39f 30f
1:54 6 8 mph 1020.2mb 39f 30f
1:48 5 7 mph 1020.2mb 39f 30f
1:42 5 8 mph 1020.1mb 40f 30f
1:36 6 9 mph 1020.1mb 39f 30f
1:30 7 8 mph 1020.1mb 40f 30f
1:24 7 9 mph 1020.1mb 39f 30f
1:18 7 9 mph 1020.1mb 39f 30f
1:12 7 9 mph 1020.1mb 39f 30f
1:06 6 7 mph 1020.1mb 39f 30f
1:00 6 8 mph 1020mb 39f 30f
12:54 6 8 mph 1020.1mb 39f 30f
12:48 6 9 mph 1020.2mb 39f 31f
12:42 7 10 mph 1020.2mb 39f 31f
12:36 7 9 mph 1020.2mb 40f 31f
12:30 8 9 mph 1020.2mb 40f 31f
12:24 6 9 mph 1020.2mb 40f 31f
12:18 6 9 mph 1020.1mb 40f 31f
12:12 6 10 mph 1020.1mb 40f 31f
12:06 5 8 mph 1020.2mb 40f 31f
12:00 6 8 mph 1020.1mb 40f 31f
Qua 01/21 11:54 6 8 mph 1020.1mb 40f 31f
11:48 3 6 mph 1020.3mb 40f 31f
11:42 5 7 mph 1020.4mb 40f 31f
11:36 6 8 mph 1020.5mb 40f 31f
11:30 6 8 mph 1020.5mb 40f 31f
11:24 5 7 mph 1020.5mb 40f 31f
11:18 6 7 mph 1020.7mb 40f 31f
11:12 5 6 mph 1020.6mb 40f 31f
11:06 5 6 mph 1020.6mb 40f 31f
11:00 3 7 mph 1020.6mb 40f 31f
10:54 3 6 mph 1020.6mb 40f 31f
10:48 5 7 mph 1020.6mb 40f 31f
10:42 6 9 mph 1020.5mb 40f 31f
10:36 7 10 mph 1020.5mb 40f 31f
10:30 6 8 mph 1020.7mb 40f 31f
10:24 5 7 mph 1020.7mb 40f 31f
10:18 3 6 mph 1020.8mb 40f 30f
10:12 5 6 mph 1020.8mb 40f 31f
10:06 2 5 mph 1020.8mb 40f 31f
10:00 3 6 mph 1020.8mb 40f 31f
9:54 3 6 mph 1020.8mb 40f 31f
9:48 3 6 mph 1020.7mb 40f 31f
9:42 3 6 mph 1020.8mb 40f 31f
9:36 3 5 mph 1020.9mb 40f 31f
9:30 3 5 mph 1020.5mb 40f 31f
9:24 1 3 mph 1020.9mb 40f 31f
9:18 2 3 mph 1021mb 40f 31f
9:12 1 3 mph 1021.1mb 40f 31f
9:06 2 5 mph 1021.1mb 40f 31f
9:00 3 5 mph 1021mb 40f 31f
8:54 3 5 mph 1021mb 40f 31f
8:48 5 6 mph 1020.9mb 40f 31f
8:42 2 5 mph 1020.8mb 40f 31f
8:36 2 3 mph 1020.9mb 40f 31f
8:30 2 3 mph - 40f 31f
8:24  -  mph - 39f 31f
8:18  -  mph 1021.1mb 39f 31f
8:12  -  2 mph 1021mb 39f 31f
8:06 1 2 mph 1020.9mb 39f 31f
8:00  -  1 mph 1021mb 39f 31f
7:54  -  2 mph 1021.1mb 40f 31f
7:48  -  mph 1021mb 40f 31f
7:42  -  1 mph 1020.9mb 40f 31f
7:36  -  mph 1021mb 40f 31f
7:30  -  mph 1020.8mb 40f 31f
7:24  -  2 mph 1021mb 40f 32f
7:18 3 5 mph 1020.9mb 40f 32f
7:12 2 3 mph 1020.9mb 40f 32f
7:06 1 5 mph 1020.8mb 40f 32f
7:00  -  5 mph 1020.8mb 40f 32f
6:54 2 5 mph 1020.8mb 40f 32f
6:48 5 6 mph 1020.6mb 40f 32f
6:42 5 6 mph 1020.7mb 40f 32f
6:36 5 6 mph 1020.5mb 40f 32f
6:30 2 3 mph 1020.7mb 40f 32f
6:24 3
mph
1020.7mb 40f 32f
6:18 2 3 mph 1020.7mb 38f 32f
6:12 1 6 mph 1020.5mb 38f 32f
6:06 3 6 mph 1019.8mb 37f 32f
6:00 3 6 mph 1019.5mb 37f 32f
5:54 2 3 mph 1019.8mb 37f 32f
5:48 2 3 mph 1019.9mb 37f 32f
5:42  -  mph 1019.7mb 37f 31f
5:36  -  mph 1019.9mb 37f 31f
5:30  -  1 mph 1019.7mb 37f 31f
5:24  -  2 mph 1019.9mb 37f 31f
5:18  -  mph 1020mb 37f 31f
5:12  -  mph 1020mb 37f 31f
5:06  -  mph 1020.2mb 37f 31f
5:00  -  mph 1020.1mb 37f 32f
4:54  -  1 mph 1020.1mb 37f 32f
4:48  -  2 mph 1020.2mb 37f 32f
4:42 2 6 mph 1020.2mb 37f 32f
4:36 5 6 mph 1020.3mb 37f 32f
4:30 3 7 mph 1020.2mb 37f 32f
4:24 6 7 mph 1020.1mb 37f 33f
4:18 6 8 mph 1020mb 37f 33f
4:12 6 7 mph 1020mb 37f 33f
4:06 6 7 mph 1019.8mb 37f 33f
4:00 5 6 mph 1019.7mb 37f 33f
3:54 5 7 mph 1019.8mb 37f 33f
3:48 5 7 mph 1020mb 37f 33f
3:42 5 8 mph 1020.1mb 37f 33f
3:36 5 7 mph 1020.1mb 37f 34f
3:30 6 7 mph 1020.1mb 37f 34f
3:24 6 7 mph 1020mb 37f 34f
3:18 5 7 mph 1020mb 37f 35f
3:12 6 7 mph 1020mb 37f 35f
3:06 5
mph
1019.9mb 37f 34f
3:00 2 5 mph 1019.8mb 37f 34f
2:54 2 3 mph 1019.7mb 37f 35f
2:48 2 3 mph 1019.7mb 37f 34f
2:42 2 5 mph 1019.8mb 37f 34f
2:36 3 6 mph 1019.8mb 38f 35f
2:30 6 7 mph 1019.9mb 38f 35f
2:24 6 7 mph 1020mb 37f 35f
2:18 6 7 mph 1020.1mb 39f 35f
2:12 7 8 mph 1020.1mb 38f 35f
2:06 7 8 mph 1020.1mb 38f 35f
2:00 7 8 mph 1020.1mb 39f 35f
1:54 7 8 mph 1020mb 39f 34f
1:48 6 7 mph 1020mb 39f 33f
1:42 6 7 mph 1020mb 39f 33f
1:36 5 6 mph 1020mb 39f 33f
1:30 5 6 mph 1020mb 39f 33f